createdAt,value
2019-01-17T00:03:35.040Z,100288.67
2019-01-17T00:08:36.976Z,100309.00
2019-01-17T00:13:38.961Z,100325.78
2019-01-17T00:18:40.702Z,100331.14
2019-01-17T00:23:42.226Z,100325.71
2019-01-17T00:28:43.753Z,100336.20
2019-01-17T00:33:45.650Z,100337.77
2019-01-17T00:38:47.252Z,100321.09
2019-01-17T00:43:48.777Z,100321.50
2019-01-17T00:48:50.368Z,100320.88
2019-01-17T00:53:51.932Z,100321.52
2019-01-17T00:58:53.457Z,100328.81
2019-01-17T01:03:54.995Z,100335.16
2019-01-17T01:08:56.933Z,100330.39
2019-01-17T01:13:58.461Z,100330.39
2019-01-17T01:18:59.960Z,100320.29
2019-01-17T01:24:01.519Z,100314.92
2019-01-17T01:29:03.056Z,100331.36
2019-01-17T01:34:04.596Z,100348.73
2019-01-17T01:39:06.830Z,100350.70
2019-01-17T01:44:08.683Z,100354.51
2019-01-17T01:49:10.266Z,100346.57
2019-01-17T01:54:11.781Z,100331.20
2019-01-17T01:59:13.325Z,100330.30
2019-01-17T02:04:15.578Z,100345.10
2019-01-17T02:09:17.090Z,100345.84
2019-01-17T02:14:18.650Z,100342.97
2019-01-17T02:19:20.191Z,100346.97
2019-01-17T02:24:28.363Z,100343.70
2019-01-17T02:29:25.524Z,100348.73
2019-01-17T02:34:27.059Z,100353.64
2019-01-17T02:39:28.611Z,100351.11
2019-01-17T02:44:30.154Z,100350.88
2019-01-17T02:49:31.691Z,100362.87
2019-01-17T02:54:35.794Z,100353.70
2019-01-17T02:59:36.659Z,100344.83
2019-01-17T03:04:38.173Z,100342.16
2019-01-17T03:09:40.083Z,100335.89
2019-01-17T03:14:41.623Z,100325.83
2019-01-17T03:19:43.208Z,100333.63
2019-01-17T03:24:44.817Z,100316.06
2019-01-17T03:29:46.404Z,100330.87
2019-01-17T03:34:48.243Z,100326.47
2019-01-17T03:39:49.800Z,100330.53
2019-01-17T03:44:51.344Z,100329.63
2019-01-17T03:49:52.871Z,100329.44
2019-01-17T03:54:54.405Z,100324.47
2019-01-17T03:59:55.934Z,100329.53
2019-01-17T04:04:57.459Z,100319.09
2019-01-17T04:09:59.337Z,100321.77
2019-01-17T04:15:01.326Z,100310.63
2019-01-17T04:20:03.677Z,100299.09
2019-01-17T04:25:05.729Z,100295.50
2019-01-17T04:30:15.066Z,100297.80
2019-01-17T04:35:16.619Z,100300.57
2019-01-17T04:40:18.225Z,100298.94
2019-01-17T04:45:19.859Z,100287.30
2019-01-17T04:50:21.369Z,100283.96
2019-01-17T04:55:22.962Z,100281.59
2019-01-17T05:00:24.517Z,100285.74
2019-01-17T05:05:26.505Z,100298.41
2019-01-17T05:10:28.079Z,100291.23
2019-01-17T05:15:29.627Z,100284.49
2019-01-17T05:20:31.146Z,100287.31
2019-01-17T05:25:32.731Z,100295.25
2019-01-17T05:30:34.308Z,100287.46
2019-01-17T05:35:35.866Z,100291.53
2019-01-17T05:40:38.684Z,100277.18
2019-01-17T05:45:40.472Z,100285.77
2019-01-17T05:50:41.996Z,100281.36
2019-01-17T05:55:43.550Z,100268.48
2019-01-17T06:00:45.099Z,100274.43
2019-01-17T06:05:46.759Z,100272.10
2019-01-17T06:10:48.627Z,100278.63
2019-01-17T06:15:50.172Z,100268.42
2019-01-17T06:20:51.733Z,100259.36
2019-01-17T06:25:53.293Z,100254.64
2019-01-17T06:30:54.831Z,100254.80
2019-01-17T06:35:56.564Z,100249.84
2019-01-17T06:40:58.279Z,100248.48
2019-01-17T06:46:00.194Z,100255.07
2019-01-17T06:51:01.755Z,100242.64
2019-01-17T06:56:03.292Z,100239.30
2019-01-17T07:01:04.876Z,100238.39
2019-01-17T07:06:06.422Z,100235.95
2019-01-17T07:11:08.010Z,100248.31
2019-01-17T07:16:09.832Z,100255.38
2019-01-17T07:21:11.742Z,100265.95
2019-01-17T07:26:13.268Z,100263.81
2019-01-17T07:31:14.895Z,100256.11
2019-01-17T07:36:17.807Z,100256.67
2019-01-17T07:41:19.363Z,100268.44
2019-01-17T07:46:21.195Z,100268.03
2019-01-17T07:51:22.754Z,100278.67
2019-01-17T07:56:24.607Z,100283.87
2019-01-17T08:01:26.201Z,100282.09
2019-01-17T08:06:27.804Z,100281.03
2019-01-17T08:11:29.322Z,100275.59
2019-01-17T08:16:31.285Z,100281.41
2019-01-17T08:21:32.884Z,100283.15
2019-01-17T08:26:34.770Z,100291.19
2019-01-17T08:31:36.367Z,100297.31
2019-01-17T08:36:37.923Z,100302.91
2019-01-17T08:41:39.526Z,100336.80
2019-01-17T08:46:41.209Z,100324.08
2019-01-17T08:51:42.859Z,100334.95
2019-01-17T08:56:44.442Z,100343.30
2019-01-17T09:01:46.008Z,100346.67
2019-01-17T09:06:48.015Z,100353.19
2019-01-17T09:11:49.614Z,100356.66
2019-01-17T09:16:51.148Z,100345.94
2019-01-17T09:21:52.698Z,100338.91
2019-01-17T09:26:54.446Z,100315.48
2019-01-17T09:31:55.965Z,100317.47
2019-01-17T09:36:57.502Z,100319.74
2019-01-17T09:41:59.046Z,100331.48
2019-01-17T09:47:00.560Z,100331.41
2019-01-17T09:52:02.436Z,100336.95
2019-01-17T09:57:04.405Z,100359.61
2019-01-17T10:02:05.905Z,100363.81
2019-01-17T10:07:07.544Z,100353.77
2019-01-17T10:12:09.098Z,100351.06
2019-01-17T10:17:34.372Z,100360.17
2019-01-17T10:23:20.466Z,100364.72
2019-01-17T10:28:57.243Z,100362.00
2019-01-17T10:34:34.417Z,100364.27
2019-01-17T10:40:11.693Z,100373.44
2019-01-17T10:46:16.196Z,100414.83
2019-01-17T10:51:41.879Z,100416.23
2019-01-17T10:56:57.661Z,100403.53
2019-01-17T11:02:39.766Z,100398.34
2019-01-17T11:08:05.112Z,100411.65
2019-01-17T11:13:50.459Z,100424.64
2019-01-17T11:19:08.223Z,100431.87
2019-01-17T11:24:36.139Z,100449.92
2019-01-17T11:30:19.413Z,100455.02
2019-01-17T11:36:14.719Z,100462.12
2019-01-17T11:41:40.332Z,100455.69
2019-01-17T11:47:29.866Z,100462.56
2019-01-17T11:53:07.075Z,100464.47
2019-01-17T11:58:40.603Z,100473.34
2019-01-17T12:04:28.717Z,100479.52
2019-01-17T12:09:30.294Z,100482.72
2019-01-17T12:14:32.295Z,100473.58
2019-01-17T12:19:33.839Z,100486.27
2019-01-17T12:24:35.835Z,100500.02
2019-01-17T12:29:37.365Z,100503.98
2019-01-17T12:34:38.867Z,100507.33
2019-01-17T12:39:40.420Z,100519.38
2019-01-17T12:44:42.153Z,100511.23
2019-01-17T12:49:44.005Z,100511.91
2019-01-17T12:54:45.526Z,100521.24
2019-01-17T12:59:47.078Z,100525.88
2019-01-17T13:04:48.651Z,100529.11
2019-01-17T13:09:50.305Z,100550.02
2019-01-17T13:14:51.806Z,100545.77
2019-01-17T13:19:53.343Z,100556.09
2019-01-17T13:24:54.903Z,100545.40
2019-01-17T13:29:57.756Z,100563.71
2019-01-17T13:34:59.305Z,100564.72
2019-01-17T13:40:00.888Z,100573.49
2019-01-17T13:45:02.699Z,100598.34
2019-01-17T13:50:04.295Z,100597.16
2019-01-17T13:55:05.918Z,100615.36
2019-01-17T14:00:11.933Z,100630.23
2019-01-17T14:05:13.538Z,100615.30
2019-01-17T14:10:15.197Z,100608.42
2019-01-17T14:15:19.148Z,100621.80
2019-01-17T14:20:20.690Z,100624.94
2019-01-17T14:25:22.366Z,100618.98
2019-01-17T14:30:25.698Z,100635.70
2019-01-17T14:35:27.299Z,100649.23
2019-01-17T14:40:29.269Z,100652.19
2019-01-17T14:45:30.799Z,100657.65
2019-01-17T14:50:32.353Z,100671.47
2019-01-17T14:55:34.016Z,100676.36
2019-01-17T15:00:35.597Z,100694.50
2019-01-17T15:05:37.133Z,100691.91
2019-01-17T15:10:39.637Z,100690.63
2019-01-17T15:15:41.241Z,100706.52
2019-01-17T15:20:42.811Z,100725.59
2019-01-17T15:25:44.475Z,100746.63
2019-01-17T15:30:46.007Z,100756.22
2019-01-17T15:35:47.872Z,100749.87
2019-01-17T15:40:49.434Z,100742.06
2019-01-17T15:45:50.982Z,100759.29
2019-01-17T15:50:53.005Z,100762.36
2019-01-17T15:55:54.938Z,100780.63
2019-01-17T16:00:56.443Z,100787.53
2019-01-17T16:05:58.008Z,100805.86
2019-01-17T16:10:59.682Z,100810.78
2019-01-17T16:16:01.235Z,100816.73
2019-01-17T16:21:02.791Z,100827.11
2019-01-17T16:26:04.347Z,100843.66
2019-01-17T16:31:05.941Z,100870.09
2019-01-17T16:36:07.826Z,100897.33
2019-01-17T16:41:09.375Z,100908.37
2019-01-17T16:46:10.960Z,100919.94
2019-01-17T16:51:12.531Z,100910.64
2019-01-17T16:56:14.377Z,100920.03
2019-01-17T17:01:16.407Z,100918.87
2019-01-17T17:06:17.955Z,100926.23
2019-01-17T17:11:19.515Z,100947.03
2019-01-17T17:16:21.097Z,100963.38
2019-01-17T17:21:22.689Z,100979.34
2019-01-17T17:26:24.293Z,100991.03
2019-01-17T17:31:25.838Z,100996.34
2019-01-17T17:36:27.407Z,101014.00
2019-01-17T17:41:29.016Z,101024.59
2019-01-17T17:46:30.730Z,101019.30
2019-01-17T17:51:32.395Z,101038.30
2019-01-17T17:56:33.983Z,101049.14
2019-01-17T18:01:35.640Z,101056.77
2019-01-17T18:06:37.290Z,101074.95
2019-01-17T18:11:38.917Z,101088.42
2019-01-17T18:16:40.561Z,101088.57
2019-01-17T18:21:42.260Z,101100.11
2019-01-17T18:26:44.725Z,101104.97
2019-01-17T18:31:46.682Z,101116.92
2019-01-17T18:36:48.297Z,101121.99
2019-01-17T18:41:51.273Z,101125.50
2019-01-17T18:46:53.019Z,101138.87
2019-01-17T18:51:54.610Z,101170.67
2019-01-17T18:56:56.680Z,101217.11
2019-01-17T19:01:59.131Z,101211.13
2019-01-17T19:07:00.865Z,101220.61
2019-01-17T19:12:02.516Z,101228.48
2019-01-17T19:17:05.200Z,101242.73
2019-01-17T19:22:06.763Z,101251.77
2019-01-17T19:27:09.039Z,101250.98
2019-01-17T19:32:10.740Z,101250.22
2019-01-17T19:37:12.285Z,101240.52
2019-01-17T19:42:14.558Z,101247.16
2019-01-17T19:47:16.401Z,101257.67
2019-01-17T19:52:18.414Z,101277.77
2019-01-17T19:57:20.723Z,101303.16
2019-01-17T20:02:22.678Z,101305.70
2019-01-17T20:07:24.257Z,101313.75
2019-01-17T20:12:26.232Z,101322.57
2019-01-17T20:17:28.086Z,101319.45
2019-01-17T20:22:29.763Z,101330.43
2019-01-17T20:27:31.702Z,101354.22
2019-01-17T20:32:33.487Z,101376.93
2019-01-17T20:37:35.031Z,101388.05
2019-01-17T20:42:36.745Z,101390.89
2019-01-17T20:47:40.886Z,101391.98
2019-01-17T20:52:42.482Z,101390.33
2019-01-17T20:57:44.064Z,101400.07
2019-01-17T21:02:46.002Z,101402.27
2019-01-17T21:07:47.627Z,101408.62
2019-01-17T21:12:49.246Z,101428.67
2019-01-17T21:17:50.801Z,101436.17
2019-01-17T21:22:52.816Z,101435.27
2019-01-17T21:27:54.530Z,101450.30
2019-01-17T21:32:56.567Z,101452.50
2019-01-17T21:37:58.550Z,101461.30
2019-01-17T21:43:00.180Z,101484.84
2019-01-17T21:48:02.996Z,101508.91
2019-01-17T21:53:04.910Z,101508.00
2019-01-17T21:58:06.797Z,101507.12
2019-01-17T22:03:11.391Z,101506.19
2019-01-17T22:08:12.939Z,101525.76
2019-01-17T22:13:14.970Z,101527.93
2019-01-17T22:18:16.589Z,101509.19
2019-01-17T22:23:18.221Z,101521.48
2019-01-17T22:28:19.946Z,101522.75
2019-01-17T22:33:21.868Z,101528.31
2019-01-17T22:38:23.610Z,101540.08
2019-01-17T22:43:26.479Z,101549.77
2019-01-17T22:48:28.528Z,101560.38
2019-01-17T22:53:30.828Z,101573.16
2019-01-17T22:58:32.771Z,101565.65
2019-01-17T23:03:39.550Z,101574.55
2019-01-17T23:08:41.207Z,101578.42
2019-01-17T23:13:42.777Z,101582.81
2019-01-17T23:18:44.712Z,101592.08
2019-01-17T23:23:46.746Z,101604.73
2019-01-17T23:28:48.295Z,101599.92
2019-01-17T23:33:49.817Z,101603.78
2019-01-17T23:38:51.788Z,101618.09
2019-01-17T23:43:54.021Z,101613.94
2019-01-17T23:48:55.837Z,101622.99
2019-01-17T23:53:57.699Z,101635.54
2019-01-17T23:58:59.220Z,101639.80
